Rankings de siempre
Mejores tiempos personales válidos de atleta a través de todos los eventos y temporadas. Cada atleta aparece una vez por división.
Busca por nombre y abre la página donde está clasificado este récord de división.
32,082 atletas clasificados
Los finishers de HYROX ELITE 15 se rastrean por separado — ver la clasificación Elite.
| Pos. | Pos. AG | Atleta | Nacionalidad | Categoría de edad | TiempoMejor tiempo | Diferencia |
|---|---|---|---|---|---|---|
| 7676 | #2094 | Curtis BatesGBR · M 25-29 · AG #2094 | GBR | M 25-29 | 1:14:50 | +21:23 |
| 7677 | #2648 | Carl JohnsonGBR · M 30-34 · AG #2648 | GBR | M 30-34 | 1:14:50 | +21:23 |
| 7678 | #101 | David Solera RemónESP · M 50-54 · AG #101 | ESP | M 50-54 | 1:14:50 | +21:23 |
| 7679 | #1676 | Jamie BarnettGBR · M 35-39 · AG #1676 | GBR | M 35-39 | 1:14:50 | +21:23 |
| 7680 | #2641 | Anthony LaigleFRA · M 30-34 · AG #2641 | FRA | M 30-34 | 1:14:50 | +21:23 |
| 7681 | #841 | Adam BatchelorGBR · M 16-24 · AG #841 | GBR | M 16-24 | 1:14:50 | +21:23 |
| 7682 | #2095 | Vincent GandilletFRA · M 25-29 · AG #2095 | FRA | M 25-29 | 1:14:51 | +21:24 |
| 7683 | #1678 | Anze SkazaSLO · M 35-39 · AG #1678 | SLO | M 35-39 | 1:14:51 | +21:24 |
| 7684 | #2650 | Mingyu ParkKOR · M 30-34 · AG #2650 | KOR | M 30-34 | 1:14:51 | +21:24 |
| 7685 | #2097 | Vasco Sérvulo RodriguesPOR · M 25-29 · AG #2097 | POR | M 25-29 | 1:14:51 | +21:24 |
| 7686 | #2098 | Jack KondakGBR · M 25-29 · AG #2098 | GBR | M 25-29 | 1:14:51 | +21:24 |
| 7687 | #2099 | Donnovan FollyFRA · M 25-29 · AG #2099 | FRA | M 25-29 | 1:14:51 | +21:24 |
| 7688 | #1681 | Fernando CarrascoESP · M 35-39 · AG #1681 | ESP | M 35-39 | 1:14:51 | +21:24 |
| 7689 | #774 | Sergey ShcherbakovUSA · M 40-44 · AG #774 | USA | M 40-44 | 1:14:51 | +21:24 |
| 7690 | #842 | Marvin MombergGER · M 16-24 · AG #842 | GER | M 16-24 | 1:14:51 | +21:24 |
| 7691 | #2649 | Kaleb YatesUSA · M 30-34 · AG #2649 | USA | M 30-34 | 1:14:51 | +21:24 |
| 7692 | #1680 | Sandro Abu Ne' MehITA · M 35-39 · AG #1680 | ITA | M 35-39 | 1:14:51 | +21:24 |
| 7693 | #2096 | Ettore PizzamiglioITA · M 25-29 · AG #2096 | ITA | M 25-29 | 1:14:51 | +21:24 |
| 7694 | #1682 | Kyle BothaRSA · M 35-39 · AG #1682 | RSA | M 35-39 | 1:14:51 | +21:24 |
| 7695 | #843 | Ryan MulvaneyAUS · M 16-24 · AG #843 | AUS | M 16-24 | 1:14:51 | +21:24 |
| 7696 | #2651 | Bartłomiej SetlakPOL · M 30-34 · AG #2651 | POL | M 30-34 | 1:14:51 | +21:24 |
| 7697 | #2652 | Tobias KochDEN · M 30-34 · AG #2652 | DEN | M 30-34 | 1:14:51 | +21:24 |
| 7698 | #773 | Remy LefebvreFRA · M 40-44 · AG #773 | FRA | M 40-44 | 1:14:51 | +21:24 |
| 7699 | #1679 | Brice SimonBEL · M 35-39 · AG #1679 | BEL | M 35-39 | 1:14:51 | +21:24 |
| 7700 | #772 | Jan Van EgmondNED · M 40-44 · AG #772 | NED | M 40-44 | 1:14:51 | +21:24 |
Página 308 de 1,284